Nearby METAR Reports

 

NZWN - Wellington Intl, New Zealand
Distance from station: E 68km
Updated: 20/07/2018 01:00
Light rain, Overcast
Light rain, Overcast
 Wind from NNE
Wind: NNE 13 km/h
Temperature: 11°C
Dew Point: 9°C
Humidity: 88%
Barometer: 1015 hPa
Summary: Light rain
Clouds: Overcast
Visibility: 10 km
Cloud details: Few Clouds 701 m
Overcast 945 m
2018/07/19 13:00 NZWN 191300Z AUTO 03007KT 9999 -RA FEW023/// OVC031/// 11/09 Q1015 REDZ NOSIG
NZCH - Christchurch Int, New Zealand
Distance from station: SSW 269km
Updated: 20/07/2018 01:00
Freezing fog, Overcast
Freezing fog, Overcast
 Wind from W
Wind: W 2 km/h
Temperature: -1°C
Dew Point: -1°C
Humidity: 100%
Barometer: 1013 hPa
Summary: Freezing Fog
Clouds: Overcast
Visibility: 0 km
Cloud details: Overcast 30 m
2018/07/19 13:00 NZCH 191300Z AUTO 28001KT 0150 R02/0700D R20/0900D FZFG VV001 M01/M01 Q1013 NOSIG
 
NZAA - Auckland Intl Ar, New Zealand
Distance from station: N 480km
Updated: 20/07/2018 01:00
Mostly cloudy
Mostly cloudy
 Wind from NW
Wind: NW 7 km/h
Temperature: 10°C
Wind Chill: 9°C
Dew Point: 9°C
Humidity: 94%
Barometer: 1018 hPa
Clouds: Mostly cloudy
Visibility: 10 km
Cloud details: Few Clouds 671 m
Mostly cloudy 2286 m
2018/07/19 13:00 NZAA 191300Z AUTO 31004KT 9999 FEW022/// BKN075/// 10/09 Q1018 NOSIG